Time;durP1;ratioP1;P1;durP2;ratioP2;P2;SDS_P1;SDS_P2;PMS_P1;PMS_P2;Temp;Humidity;BMP_temperature;BMP_pressure;BME280_temperature;BME280_humidity;BME280_pressure;Samples;Min_cycle;Max_cycle;Signal;HPM_P1;HPM_P2
2022/08/11 00:01:12;;;;;;;5.80;2.38;;;22.80;82.70;;;;;;5073991;28;20089;-60
2022/08/11 00:04:02;;;;;;;6.80;2.65;;;22.80;83.10;;;;;;5074154;28;20021;-60
2022/08/11 00:06:31;;;;;;;5.65;2.20;;;22.80;83.50;;;;;;5073510;28;20103;-59
2022/08/11 00:08:57;;;;;;;6.82;2.40;;;22.60;84.50;;;;;;5074026;28;20527;-58
2022/08/11 00:11:52;;;;;;;4.50;2.10;;;22.70;85.30;;;;;;5073718;28;20025;-60
2022/08/11 00:14:31;;;;;;;5.90;2.20;;;22.60;86.20;;;;;;5073435;28;20029;-59
2022/08/11 00:17:06;;;;;;;4.55;2.15;;;22.50;87.30;;;;;;5073470;28;20043;-59
2022/08/11 00:19:36;;;;;;;7.35;2.35;;;22.40;86.90;;;;;;5073823;28;20029;-59
2022/08/11 00:22:04;;;;;;;6.15;2.40;;;22.30;88.50;;;;;;5073614;28;20021;-60
2022/08/11 00:24:39;;;;;;;8.18;2.47;;;22.30;89.50;;;;;;5073736;28;20060;-59
2022/08/11 00:27:06;;;;;;;8.07;2.38;;;22.20;90.00;;;;;;5073287;28;20032;-59
2022/08/11 00:29:32;;;;;;;5.13;2.97;;;22.30;89.50;;;;;;5073512;28;20032;-58
2022/08/11 00:32:01;;;;;;;5.97;2.70;;;22.20;90.20;;;;;;5073303;28;20016;-58
2022/08/11 00:34:30;;;;;;;5.82;2.65;;;22.30;90.70;;;;;;5073209;28;20021;-59
2022/08/11 00:37:08;;;;;;;6.10;3.10;;;22.20;90.70;;;;;;5072445;28;20454;-59
2022/08/11 00:39:41;;;;;;;6.38;2.70;;;22.20;90.80;;;;;;5073430;28;20044;-59
2022/08/11 00:42:31;;;;;;;9.15;2.85;;;22.10;91.00;;;;;;5073242;28;20079;-59
2022/08/11 00:45:12;;;;;;;4.88;2.22;;;22.10;91.60;;;;;;5073062;28;20039;-59
2022/08/11 00:48:29;;;;;;;4.30;2.60;;;22.10;92.20;;;;;;5073004;28;20032;-59
2022/08/11 00:51:25;;;;;;;7.07;2.92;;;21.90;92.70;;;;;;5030586;28;20076;-59
2022/08/11 00:53:54;;;;;;;6.35;2.47;;;21.90;93.30;;;;;;5003311;28;20127;-59
2022/08/11 00:56:28;;;;;;;7.50;2.70;;;21.80;93.50;;;;;;5059966;28;20405;-59
2022/08/11 00:59:00;;;;;;;6.07;2.90;;;21.80;94.10;;;;;;5073044;28;20060;-59
2022/08/11 01:01:31;;;;;;;8.17;2.70;;;21.80;94.20;;;;;;5072837;28;20017;-59
2022/08/11 01:04:34;;;;;;;6.95;2.53;;;21.80;94.50;;;;;;5071453;28;20520;-59
2022/08/11 01:07:21;;;;;;;9.27;2.80;;;21.60;95.20;;;;;;5072627;28;20020;-59
2022/08/11 01:10:25;;;;;;;4.20;2.70;;;21.60;95.20;;;;;;5072743;28;20481;-59
2022/08/11 01:13:28;;;;;;;4.63;2.80;;;21.60;95.20;;;;;;5072689;28;20473;-58
2022/08/11 01:16:30;;;;;;;6.57;2.50;;;21.70;95.30;;;;;;5072665;28;20029;-58
2022/08/11 01:18:59;;;;;;;7.65;2.60;;;21.70;95.50;;;;;;5072669;28;20035;-59
2022/08/11 01:22:02;;;;;;;6.15;2.78;;;21.70;95.70;;;;;;5072760;28;20031;-60
2022/08/11 01:24:30;;;;;;;5.93;2.47;;;21.70;95.90;;;;;;5072825;28;20039;-59
2022/08/11 01:27:01;;;;;;;10.80;2.70;;;21.70;96.00;;;;;;5072161;28;20515;-60
2022/08/11 01:30:02;;;;;;;3.65;2.58;;;21.70;96.10;;;;;;5072398;28;20032;-59
2022/08/11 01:33:01;;;;;;;4.43;2.65;;;21.70;96.40;;;;;;5072767;28;20107;-58
2022/08/11 01:35:48;;;;;;;8.98;2.92;;;21.60;96.60;;;;;;5072364;28;20052;-58
2022/08/11 01:38:51;;;;;;;11.48;3.22;;;21.60;96.80;;;;;;5072321;28;20040;-58
2022/08/11 01:41:19;;;;;;;;;;;21.60;97.00;;;;;;5072507;28;20033;-59
2022/08/11 01:44:38;;;;;;;4.50;2.70;;;21.60;97.10;;;;;;5071931;28;19908;-60
2022/08/11 01:50:26;;;;;;;9.13;2.87;;;21.50;97.70;;;;;;5071662;28;20090;-59
2022/08/11 01:53:15;;;;;;;3.10;2.75;;;21.60;98.20;;;;;;5071864;28;20481;-59
2022/08/11 01:56:01;;;;;;;10.10;3.38;;;21.50;98.00;;;;;;5071791;28;20423;-60
2022/08/11 01:58:29;;;;;;;5.63;3.10;;;21.50;98.40;;;;;;5071873;28;20036;-59
2022/08/11 02:01:24;;;;;;;8.55;3.05;;;21.40;98.80;;;;;;5071446;28;20051;-59
2022/08/11 02:03:59;;;;;;;4.78;2.95;;;21.40;99.00;;;;;;5071472;28;20166;-60
2022/08/11 02:06:55;;;;;;;5.57;3.00;;;21.30;99.10;;;;;;5071206;28;20393;-59
2022/08/11 02:09:43;;;;;;;4.30;3.20;;;21.30;99.30;;;;;;5071908;28;20036;-59
2022/08/11 02:12:26;;;;;;;9.35;3.03;;;21.30;99.40;;;;;;5071270;28;20032;-59
2022/08/11 02:15:06;;;;;;;3.83;2.95;;;21.30;99.80;;;;;;5071604;28;20028;-59
2022/08/11 02:17:40;;;;;;;9.07;3.05;;;21.20;99.90;;;;;;5070504;28;20028;-59
2022/08/11 02:26:13;;;;;;;10.02;3.70;;;21.10;99.90;;;;;;5071953;28;20024;-60
2022/08/11 02:28:52;;;;;;;8.63;3.08;;;21.10;99.90;;;;;;5071519;28;20029;-60
2022/08/11 02:34:15;;;;;;;6.60;3.30;;;21.00;99.90;;;;;;5071527;28;20047;-59
2022/08/11 02:36:54;;;;;;;9.35;3.55;;;21.00;99.90;;;;;;5071343;28;20047;-59
2022/08/11 02:39:23;;;;;;;5.70;3.17;;;21.00;99.90;;;;;;5071318;28;20166;-59
2022/08/11 02:42:26;;;;;;;4.47;2.92;;;21.00;99.90;;;;;;5071294;28;20082;-59
2022/08/11 02:45:02;;;;;;;10.32;3.60;;;20.90;99.90;;;;;;5070376;28;20048;-59
2022/08/11 02:47:37;;;;;;;9.43;3.45;;;20.90;99.90;;;;;;5070943;28;20033;-59
2022/08/11 02:50:26;;;;;;;8.25;3.63;;;20.80;99.90;;;;;;5070924;28;20035;-59
2022/08/11 02:53:01;;;;;;;8.95;3.50;;;20.90;99.90;;;;;;5071302;28;20436;-59
2022/08/11 02:55:45;;;;;;;6.95;3.28;;;20.80;99.90;;;;;;5070917;28;20055;-59
2022/08/11 02:58:25;;;;;;;8.65;3.25;;;20.70;99.90;;;;;;5071288;28;20024;-59
2022/08/11 03:01:01;;;;;;;6.35;3.15;;;20.60;99.90;;;;;;5070618;28;20048;-59
2022/08/11 03:03:37;;;;;;;10.68;3.42;;;20.60;99.90;;;;;;5070829;28;20086;-59
2022/08/11 03:06:11;;;;;;;16.25;4.25;;;20.60;99.90;;;;;;5071130;28;20116;-59
2022/08/11 03:08:53;;;;;;;12.85;4.00;;;20.50;99.90;;;;;;5070918;28;20035;-59
2022/08/11 03:18:01;;;;;;;7.22;3.70;;;20.30;99.90;;;;;;5070523;28;20043;-59
2022/08/11 03:20:38;;;;;;;6.85;3.60;;;20.30;99.90;;;;;;5070606;28;20039;-59
2022/08/11 03:23:16;;;;;;;5.75;3.45;;;20.20;99.90;;;;;;5069431;28;20037;-59
2022/08/11 03:26:00;;;;;;;6.30;3.63;;;20.20;99.90;;;;;;5070576;28;20477;-59
2022/08/11 03:29:16;;;;;;;7.72;3.58;;;20.20;99.90;;;;;;5070786;28;20090;-59
2022/08/11 03:31:55;;;;;;;8.45;3.95;;;20.20;99.90;;;;;;5052788;28;20097;-60
2022/08/11 03:34:24;;;;;;;9.07;3.78;;;20.20;99.90;;;;;;5070429;28;20017;-59
2022/08/11 03:37:08;;;;;;;6.97;3.55;;;20.20;99.90;;;;;;5070396;28;20103;-59
2022/08/11 03:39:54;;;;;;;4.97;3.67;;;20.20;99.90;;;;;;5070663;28;20040;-59
2022/08/11 03:42:36;;;;;;;4.43;3.40;;;20.10;99.90;;;;;;5070873;28;20573;-59
2022/08/11 03:45:14;;;;;;;7.00;3.80;;;20.00;99.90;;;;;;5070769;28;20028;-59
2022/08/11 03:48:13;;;;;;;7.55;4.22;;;20.00;99.90;;;;;;5070429;28;20051;-59
2022/08/11 03:50:54;;;;;;;7.20;4.45;;;20.00;99.90;;;;;;5070332;28;20050;-60
2022/08/11 03:53:41;;;;;;;9.15;4.15;;;19.90;99.90;;;;;;5070550;28;20033;-58
2022/08/11 03:56:30;;;;;;;7.60;4.00;;;19.90;99.90;;;;;;5070274;28;20094;-58
2022/08/11 03:59:23;;;;;;;7.15;4.22;;;19.90;99.90;;;;;;5069042;28;20275;-58
2022/08/11 04:02:08;;;;;;;7.90;4.55;;;19.80;99.90;;;;;;5070521;28;20120;-60
2022/08/11 04:04:58;;;;;;;8.70;4.28;;;19.80;99.90;;;;;;5070535;28;20512;-60
2022/08/11 04:07:58;;;;;;;11.93;4.47;;;19.80;99.90;;;;;;5070494;28;20039;-60
2022/08/11 04:10:41;;;;;;;9.13;4.22;;;19.80;99.90;;;;;;5070048;28;20041;-59
2022/08/11 04:13:19;;;;;;;12.57;4.47;;;19.80;99.90;;;;;;5073196;28;20409;-60
2022/08/11 04:15:59;;;;;;;9.13;4.50;;;19.80;99.90;;;;;;5074117;28;20442;-60
2022/08/11 04:18:38;;;;;;;13.32;5.13;;;19.80;99.90;;;;;;5073816;28;20024;-60
2022/08/11 04:21:18;;;;;;;11.02;4.32;;;19.70;99.90;;;;;;5073757;28;20448;-60
2022/08/11 04:24:03;;;;;;;15.00;4.75;;;19.70;99.90;;;;;;5072037;28;20044;-60
2022/08/11 04:26:44;;;;;;;12.82;4.38;;;19.70;99.90;;;;;;5073449;28;20021;-59
2022/08/11 04:29:40;;;;;;;11.32;4.35;;;19.70;99.90;;;;;;5073778;28;20513;-59
2022/08/11 04:32:39;;;;;;;12.60;5.50;;;19.60;99.90;;;;;;5073429;28;20031;-60
2022/08/11 04:35:24;;;;;;;12.05;4.28;;;19.60;99.90;;;;;;5073650;28;20032;-61
2022/08/11 04:38:30;;;;;;;9.50;4.40;;;19.60;99.90;;;;;;5073541;28;20020;-58
2022/08/11 04:41:33;;;;;;;9.98;4.40;;;19.50;99.90;;;;;;5067616;28;20037;-58
2022/08/11 04:43:58;;;;;;;;;;;19.50;99.90;;;;;;5073974;28;20053;-58
2022/08/11 04:46:49;;;;;;;8.45;4.57;;;19.50;99.90;;;;;;5072917;28;20340;-58
2022/08/11 05:01:40;;;;;;;9.70;4.75;;;19.50;99.90;;;;;;5073019;28;20626;-59
2022/08/11 05:07:44;;;;;;;8.65;4.30;;;19.60;99.90;;;;;;5030271;28;20056;-59
2022/08/11 05:10:35;;;;;;;11.77;4.88;;;19.50;99.90;;;;;;5072814;28;20056;-60
2022/08/11 05:35:59;;;;;;;14.30;5.15;;;19.80;99.90;;;;;;5072451;28;20039;-58
2022/08/11 05:58:09;;;;;;;9.60;5.30;;;20.40;99.90;;;;;;5072105;28;20472;-59
2022/08/11 06:00:44;;;;;;;12.15;5.45;;;20.50;99.90;;;;;;5070432;28;20044;-59
2022/08/11 06:03:19;;;;;;;12.10;5.50;;;20.60;99.90;;;;;;5071712;28;20111;-59
2022/08/11 06:05:45;;;;;;;9.93;5.70;;;20.60;99.90;;;;;;5071602;28;20028;-59
2022/08/11 06:08:12;;;;;;;9.75;4.80;;;20.50;99.90;;;;;;5071783;28;20055;-59
2022/08/11 06:10:41;;;;;;;9.75;5.38;;;20.50;99.90;;;;;;5071449;28;20024;-59
2022/08/11 06:13:08;;;;;;;12.85;4.95;;;20.60;99.90;;;;;;5071396;28;20036;-59
2022/08/11 06:15:44;;;;;;;9.50;5.50;;;20.70;99.90;;;;;;5071500;28;20489;-59
2022/08/11 06:18:11;;;;;;;16.23;5.32;;;20.90;99.90;;;;;;5071827;28;20028;-59
2022/08/11 06:20:54;;;;;;;8.63;4.97;;;20.90;99.90;;;;;;5071441;28;20617;-59
2022/08/11 06:23:29;;;;;;;20.58;6.53;;;21.00;99.90;;;;;;5071543;28;20162;-59
2022/08/11 06:25:57;;;;;;;17.67;6.70;;;21.10;99.90;;;;;;5071197;28;20031;-59
2022/08/11 06:28:35;;;;;;;10.60;5.88;;;21.30;99.90;;;;;;5071397;28;20029;-59
2022/08/11 06:31:24;;;;;;;11.18;5.22;;;21.70;99.90;;;;;;5070916;28;20385;-59
2022/08/11 06:33:49;;;;;;;9.50;5.57;;;21.80;99.90;;;;;;5071044;28;20054;-59
2022/08/11 06:36:37;;;;;;;11.40;5.28;;;22.00;99.90;;;;;;5069488;28;20032;-59
2022/08/11 06:39:40;;;;;;;8.88;5.43;;;22.00;99.90;;;;;;5071306;28;20119;-60
2022/08/11 06:42:10;;;;;;;10.80;5.47;;;22.10;99.90;;;;;;5070852;28;20107;-60
2022/08/11 06:45:10;;;;;;;12.55;5.57;;;22.10;99.90;;;;;;5071022;28;20044;-60
2022/08/11 06:47:46;;;;;;;12.40;5.60;;;22.20;99.90;;;;;;5057424;28;20040;-59
2022/08/11 06:53:11;;;;;;;23.02;5.90;;;22.30;99.90;;;;;;5070909;28;20562;-59
2022/08/11 07:01:20;;;;;;;11.13;5.53;;;22.60;99.90;;;;;;5071224;28;20075;-58
2022/08/11 07:03:49;;;;;;;10.13;5.35;;;22.60;99.90;;;;;;5071079;28;20025;-59
2022/08/11 07:06:38;;;;;;;9.68;5.20;;;22.40;99.90;;;;;;5070686;28;20535;-59
2022/08/11 07:15:43;;;;;;;11.77;4.00;;;24.10;99.90;;;;;;5067568;28;20043;-60
2022/08/11 07:30:36;;;;;;;8.10;3.58;;;31.80;74.80;;;;;;5070472;28;20043;-60
2022/08/11 07:33:03;;;;;;;9.05;3.85;;;32.10;73.60;;;;;;5070731;28;20025;-60
2022/08/11 07:35:33;;;;;;;9.07;3.75;;;32.70;69.80;;;;;;5069595;28;20023;-60
2022/08/11 07:38:06;;;;;;;9.23;3.90;;;32.80;69.50;;;;;;5071084;28;20100;-60
2022/08/11 07:40:33;;;;;;;7.97;3.72;;;34.00;65.60;;;;;;5070781;28;20436;-60
2022/08/11 07:42:59;;;;;;;8.93;3.45;;;34.20;63.50;;;;;;5070622;28;20032;-60
2022/08/11 07:53:43;;;;;;;6.78;3.45;;;34.50;60.60;;;;;;5074163;28;20106;-60
2022/08/11 07:56:14;;;;;;;9.85;3.10;;;34.50;60.00;;;;;;5074307;28;20017;-60
2022/08/11 08:18:06;;;;;;;8.25;2.92;;;34.60;58.30;;;;;;5074192;28;20166;-60
2022/08/11 08:20:39;;;;;;;6.07;2.80;;;35.50;56.30;;;;;;5073762;28;20035;-61
2022/08/11 08:23:06;;;;;;;6.90;2.78;;;35.70;54.80;;;;;;5073755;28;20489;-61
2022/08/11 08:25:40;;;;;;;8.38;2.90;;;35.30;55.70;;;;;;5073628;28;20524;-60
2022/08/11 08:28:09;;;;;;;7.55;2.58;;;35.40;55.10;;;;;;5074228;28;20064;-62
2022/08/11 08:30:54;;;;;;;7.28;2.72;;;34.90;55.80;;;;;;5073341;28;20416;-60
2022/08/11 08:33:26;;;;;;;5.95;3.00;;;35.20;55.20;;;;;;5073787;28;20032;-60
2022/08/11 08:36:10;;;;;;;10.80;2.60;;;34.80;54.80;;;;;;5072452;28;20115;-60
2022/08/11 08:38:56;;;;;;;7.20;2.75;;;34.40;56.10;;;;;;5073822;28;20356;-60
2022/08/11 08:41:26;;;;;;;14.98;3.13;;;34.00;56.90;;;;;;5073470;28;20056;-61
2022/08/11 08:43:58;;;;;;;9.52;2.80;;;34.20;56.60;;;;;;5073421;28;20438;-62
2022/08/11 08:46:34;;;;;;;7.55;2.80;;;34.30;56.50;;;;;;5072983;28;20063;-62
2022/08/11 08:49:01;;;;;;;9.85;2.50;;;35.30;55.80;;;;;;5073542;28;20028;-59
2022/08/11 08:51:34;;;;;;;12.23;3.60;;;35.70;54.30;;;;;;5073437;28;20031;-61
2022/08/11 08:54:18;;;;;;;6.15;2.80;;;35.80;54.20;;;;;;5073656;28;20221;-61
2022/08/11 08:56:45;;;;;;;7.80;2.80;;;36.30;53.80;;;;;;5073208;28;20550;-61
2022/08/11 08:59:13;;;;;;;8.60;2.65;;;36.30;53.20;;;;;;5072908;28;20119;-61
2022/08/11 09:01:48;;;;;;;9.80;2.58;;;36.40;52.40;;;;;;5073366;28;20032;-61
2022/08/11 09:04:15;;;;;;;11.07;2.60;;;36.20;51.90;;;;;;5073249;28;20064;-61
2022/08/11 09:06:44;;;;;;;6.05;2.30;;;35.70;51.70;;;;;;5072863;28;20424;-61
2022/08/11 09:09:13;;;;;;;5.60;2.53;;;36.10;51.90;;;;;;5073372;28;20056;-61
2022/08/11 09:11:53;;;;;;;9.60;2.45;;;36.50;50.50;;;;;;5072769;28;20056;-60
2022/08/11 09:14:59;;;;;;;8.18;2.42;;;36.70;50.50;;;;;;5071572;28;20041;-61
2022/08/11 09:17:11;;;;;;;;;;;36.40;50.70;;;;;;5073059;28;20516;-62
2022/08/11 09:19:37;;;;;;;9.57;2.40;;;36.50;50.00;;;;;;5071913;28;19961;-62
2022/08/11 09:27:35;;;;;;;6.95;2.15;;;36.40;49.30;;;;;;5072888;28;20039;-62
2022/08/11 09:30:01;;;;;;;6.53;2.53;;;36.00;49.70;;;;;;5075237;28;20119;-63
2022/08/11 09:32:28;;;;;;;5.78;2.35;;;36.40;49.80;;;;;;5072366;28;20112;-62
2022/08/11 09:34:54;;;;;;;8.23;2.88;;;37.10;47.80;;;;;;5071968;28;20023;-62
2022/08/11 09:45:37;;;;;;;8.15;2.22;;;36.50;49.10;;;;;;5072385;28;20043;-62
2022/08/11 09:48:04;;;;;;;7.35;2.20;;;36.80;48.60;;;;;;5072213;28;20050;-63
2022/08/11 09:50:32;;;;;;;7.55;2.60;;;37.50;47.00;;;;;;5072005;28;20024;-63
2022/08/11 09:52:59;;;;;;;11.00;2.58;;;37.40;46.50;;;;;;5071883;28;20025;-63
2022/08/11 09:55:25;;;;;;;10.00;2.53;;;37.80;46.10;;;;;;5070611;28;20033;-62
2022/08/11 10:00:36;;;;;;;4.88;2.28;;;37.20;46.00;;;;;;5071576;28;20059;-62
2022/08/11 10:03:06;;;;;;;6.13;2.30;;;36.70;47.10;;;;;;5072183;28;20401;-62
2022/08/11 10:08:18;;;;;;;7.32;3.00;;;36.30;47.30;;;;;;5072394;28;20046;-62
2022/08/11 10:10:45;;;;;;;4.20;2.08;;;35.90;47.60;;;;;;5070863;28;20035;-63
2022/08/11 10:13:24;;;;;;;6.28;1.80;;;36.00;47.40;;;;;;5071337;28;20063;-62
2022/08/11 10:15:56;;;;;;;4.93;2.10;;;36.60;46.70;;;;;;5071264;28;20012;-62
2022/08/11 10:18:41;;;;;;;7.40;2.28;;;37.00;46.90;;;;;;5070752;28;20063;-61
2022/08/11 10:21:33;;;;;;;4.55;2.00;;;37.20;46.10;;;;;;5071518;28;20074;-61
2022/08/11 10:26:57;;;;;;;9.85;2.17;;;36.50;46.70;;;;;;5071904;28;20063;-61
2022/08/11 10:35:12;;;;;;;3.65;2.20;;;36.70;46.60;;;;;;5071471;28;20141;-63
2022/08/11 10:37:39;;;;;;;4.80;2.20;;;36.90;45.40;;;;;;5071328;28;20397;-62
2022/08/11 10:40:07;;;;;;;4.47;2.50;;;37.10;45.80;;;;;;5071433;28;20021;-64
2022/08/11 10:48:05;;;;;;;4.15;2.30;;;36.90;44.70;;;;;;5071658;28;20089;-62
2022/08/11 10:58:48;;;;;;;4.80;2.40;;;36.90;44.70;;;;;;5071295;28;20035;-62
2022/08/11 11:01:15;;;;;;;8.02;2.63;;;37.50;44.80;;;;;;5071295;28;20048;-62
2022/08/11 11:03:42;;;;;;;4.45;2.55;;;37.80;44.70;;;;;;5069376;28;20523;-66
2022/08/11 11:06:32;;;;;;;2.97;2.15;;;38.20;44.40;;;;;;5071111;28;20034;-62
2022/08/11 11:09:07;;;;;;;9.70;2.35;;;38.60;44.40;;;;;;5070880;28;20029;-62
2022/08/11 11:20:32;;;;;;;4.07;2.15;;;38.80;44.00;;;;;;5071293;28;20093;-62
2022/08/11 11:23:03;;;;;;;3.95;2.00;;;39.30;43.60;;;;;;5074855;28;20043;-62
2022/08/11 11:25:29;;;;;;;;;;;39.20;42.80;;;;;;5073819;28;20029;-62
2022/08/11 11:28:28;;;;;;;15.32;2.88;;;39.40;42.90;;;;;;5074869;28;20265;-62
2022/08/11 11:31:22;;;;;;;9.98;2.30;;;38.80;42.80;;;;;;5073160;28;20515;-62
2022/08/11 11:34:06;;;;;;;6.82;2.60;;;38.40;42.60;;;;;;5064708;28;20102;-63
2022/08/11 11:36:48;;;;;;;7.05;2.45;;;38.40;43.30;;;;;;5074641;28;20477;-62
2022/08/11 11:39:20;;;;;;;10.00;2.30;;;39.00;42.50;;;;;;5074861;28;20389;-62
2022/08/11 11:41:47;;;;;;;8.20;2.08;;;39.40;42.80;;;;;;5074397;28;20543;-62
2022/08/11 11:44:14;;;;;;;5.57;2.33;;;39.50;42.60;;;;;;5074234;28;20029;-62
2022/08/11 11:46:44;;;;;;;6.03;2.30;;;38.80;42.30;;;;;;5074364;28;20032;-62
2022/08/11 11:49:11;;;;;;;8.75;2.47;;;38.50;42.60;;;;;;5074427;28;20370;-62
2022/08/11 11:51:37;;;;;;;7.57;2.42;;;38.80;42.30;;;;;;5074090;28;20027;-62
2022/08/11 11:54:04;;;;;;;4.60;2.03;;;39.10;42.00;;;;;;5074080;28;20036;-62
2022/08/11 11:56:30;;;;;;;26.17;3.42;;;39.30;42.10;;;;;;5074286;28;20043;-62
2022/08/11 12:01:44;;;;;;;4.07;2.00;;;39.00;41.90;;;;;;5074308;28;20070;-61
2022/08/11 12:04:12;;;;;;;4.05;1.90;;;39.20;41.70;;;;;;5073917;28;20528;-62
2022/08/11 12:06:38;;;;;;;8.10;2.58;;;39.10;41.60;;;;;;5074279;28;20044;-62
2022/08/11 12:09:05;;;;;;;6.45;2.30;;;39.10;41.50;;;;;;5074022;28;20035;-62
2022/08/11 12:14:18;;;;;;;7.53;2.17;;;38.50;41.30;;;;;;5073883;28;20097;-62
2022/08/11 12:16:45;;;;;;;2.80;1.92;;;39.00;41.40;;;;;;5073649;28;20375;-62
2022/08/11 12:19:20;;;;;;;4.85;2.45;;;39.90;41.00;;;;;;5073822;28;20017;-62
2022/08/11 12:27:20;;;;;;;4.28;1.90;;;40.00;40.40;;;;;;5073841;28;20091;-62
2022/08/11 12:29:53;;;;;;;3.72;1.88;;;39.90;40.70;;;;;;5073738;28;20040;-62
2022/08/11 12:32:20;;;;;;;4.15;2.13;;;40.40;39.80;;;;;;5072897;28;20056;-62
2022/08/11 12:34:47;;;;;;;4.88;2.08;;;39.70;40.30;;;;;;5072376;28;20012;-62
2022/08/11 12:37:18;;;;;;;2.67;2.20;;;38.80;41.10;;;;;;5072300;28;20025;-62
2022/08/11 12:45:27;;;;;;;4.40;2.03;;;39.60;40.30;;;;;;5073402;28;20133;-63
2022/08/11 12:53:41;;;;;;;4.20;2.38;;;39.70;40.10;;;;;;5073333;28;20051;-62
2022/08/11 13:07:07;;;;;;;6.35;2.45;;;38.30;41.80;;;;;;5073052;28;20035;-62
2022/08/11 13:09:36;;;;;;;6.55;2.28;;;38.70;41.00;;;;;;5073076;28;20032;-62
2022/08/11 13:14:54;;;;;;;8.40;2.45;;;38.70;41.10;;;;;;5072039;28;20041;-63
2022/08/11 13:17:21;;;;;;;2.63;2.05;;;39.40;41.10;;;;;;5071157;28;20064;-63
2022/08/11 13:19:48;;;;;;;4.45;2.10;;;40.00;40.20;;;;;;5071426;28;20109;-63
2022/08/11 13:22:17;;;;;;;3.83;1.98;;;40.20;39.00;;;;;;5072563;28;20024;-63
2022/08/11 13:24:45;;;;;;;5.60;2.42;;;40.20;39.30;;;;;;5072379;28;20086;-63
2022/08/11 13:27:11;;;;;;;6.38;2.20;;;40.10;39.70;;;;;;5072675;28;20021;-63
2022/08/11 13:33:12;;;;;;;4.07;2.20;;;40.10;39.40;;;;;;5072368;28;20484;-63
2022/08/11 13:35:54;;;;;;;6.28;2.30;;;39.80;39.90;;;;;;5072546;28;20485;-62
2022/08/11 13:38:24;;;;;;;3.47;2.30;;;39.60;39.60;;;;;;5072339;28;20474;-62
2022/08/11 13:40:53;;;;;;;8.23;2.20;;;40.10;39.70;;;;;;5072161;28;20029;-62
2022/08/11 13:43:20;;;;;;;4.82;2.13;;;40.30;39.40;;;;;;5071927;28;20037;-64
2022/08/11 13:45:47;;;;;;;4.10;2.10;;;40.10;39.20;;;;;;5071866;28;20036;-63
2022/08/11 13:48:14;;;;;;;3.08;2.28;;;40.20;39.00;;;;;;5072559;28;20060;-61
2022/08/11 13:53:28;;;;;;;9.07;2.75;;;37.80;40.20;;;;;;5072217;28;20051;-62
2022/08/11 13:55:56;;;;;;;4.30;2.22;;;37.30;41.10;;;;;;5072085;28;20023;-62
2022/08/11 13:58:22;;;;;;;6.13;2.35;;;37.30;41.30;;;;;;5071811;28;20032;-63
2022/08/11 14:00:51;;;;;;;4.38;1.95;;;37.50;40.90;;;;;;5071552;28;20063;-63
2022/08/11 14:03:22;;;;;;;6.78;2.10;;;37.50;40.60;;;;;;5071780;28;20032;-63
2022/08/11 14:05:51;;;;;;;6.28;2.10;;;37.50;40.70;;;;;;5072012;28;20043;-62
2022/08/11 14:08:23;;;;;;;9.70;2.10;;;37.90;41.00;;;;;;5072057;28;20024;-63
2022/08/11 14:13:36;;;;;;;11.65;2.63;;;38.50;40.80;;;;;;5071615;28;20052;-63
2022/08/11 14:13:52;;;;;;;5.22;1.85;;;38.90;39.90;;;;;;5071802;28;20040;-62
2022/08/11 14:16:41;;;;;;;4.38;2.10;;;39.20;39.20;;;;;;5071430;28;20016;-64
2022/08/11 14:19:11;;;;;;;5.32;2.10;;;40.00;38.60;;;;;;5071942;28;20477;-63
2022/08/11 14:24:28;;;;;;;6.70;2.00;;;40.80;37.00;;;;;;5071904;28;20043;-62
2022/08/11 14:26:54;;;;;;;6.47;1.70;;;40.60;36.90;;;;;;5071531;28;20020;-62
2022/08/11 14:29:21;;;;;;;4.30;1.80;;;40.90;37.40;;;;;;5071950;28;20433;-62
2022/08/11 14:31:50;;;;;;;5.60;2.10;;;41.10;37.20;;;;;;5071985;28;20508;-62
2022/08/11 14:34:20;;;;;;;6.90;1.75;;;41.30;37.30;;;;;;5071162;28;20020;-63
2022/08/11 14:36:52;;;;;;;8.02;1.83;;;41.30;36.90;;;;;;5071332;28;20055;-63
2022/08/11 14:39:26;;;;;;;3.72;1.77;;;40.70;37.00;;;;;;5071661;28;20031;-63
2022/08/11 14:47:34;;;;;;;9.55;2.10;;;40.20;37.20;;;;;;5071323;28;20273;-62
2022/08/11 14:50:02;;;;;;;3.28;1.65;;;39.40;37.60;;;;;;5071220;28;20043;-62
2022/08/11 14:52:33;;;;;;;5.18;2.03;;;39.00;38.10;;;;;;5071086;28;20021;-61
2022/08/11 14:57:46;;;;;;;7.95;2.22;;;37.90;38.80;;;;;;5071090;28;20079;-62
2022/08/11 15:00:14;;;;;;;4.28;1.95;;;37.80;39.30;;;;;;5070965;28;20076;-62
2022/08/11 15:05:26;;;;;;;28.80;3.53;;;38.30;38.20;;;;;;5071085;28;20059;-62
2022/08/11 15:07:54;;;;;;;5.55;1.73;;;38.10;38.00;;;;;;5071133;28;20397;-62
2022/08/11 15:10:21;;;;;;;6.82;1.83;;;38.00;38.20;;;;;;5070962;28;20115;-63
2022/08/11 15:12:47;;;;;;;5.65;1.70;;;38.00;38.20;;;;;;5071006;28;20118;-62
2022/08/11 15:18:00;;;;;;;8.00;2.10;;;38.10;38.50;;;;;;5071413;28;20063;-62
2022/08/11 15:26:02;;;;;;;2.55;2.00;;;38.80;37.20;;;;;;5070668;28;20028;-62
2022/08/11 15:46:05;;;;;;;5.47;2.15;;;35.00;40.90;;;;;;5070547;28;20043;-62
2022/08/11 15:48:41;;;;;;;5.40;1.77;;;34.90;40.80;;;;;;5071313;28;20134;-62
2022/08/11 15:51:15;;;;;;;5.78;2.20;;;35.20;41.10;;;;;;5070209;28;20029;-61
2022/08/11 15:53:48;;;;;;;4.97;2.00;;;35.50;40.50;;;;;;5070547;28;20027;-61
2022/08/11 15:56:16;;;;;;;7.10;1.92;;;35.10;40.70;;;;;;5070854;28;20020;-61
2022/08/11 16:04:23;;;;;;;6.25;1.75;;;36.70;40.10;;;;;;5070200;28;20265;-62
2022/08/11 16:06:52;;;;;;;6.57;2.35;;;37.10;39.90;;;;;;5069271;28;20020;-61
2022/08/11 16:09:31;;;;;;;2.92;1.77;;;37.30;40.00;;;;;;5074000;28;20036;-61
2022/08/11 16:12:02;;;;;;;6.65;2.22;;;37.20;39.10;;;;;;5073744;28;20021;-61
2022/08/11 16:17:19;;;;;;;4.85;2.22;;;36.60;40.30;;;;;;5074099;28;20495;-61
2022/08/11 16:19:48;;;;;;;5.65;1.90;;;36.60;40.20;;;;;;5072680;28;20028;-61
2022/08/11 16:22:20;;;;;;;4.03;1.80;;;36.30;41.00;;;;;;5073722;28;20024;-61
2022/08/11 16:24:48;;;;;;;4.28;2.08;;;36.20;41.30;;;;;;5073538;28;20028;-62
2022/08/11 16:27:17;;;;;;;6.50;2.60;;;36.10;41.60;;;;;;5073809;28;20553;-62
2022/08/11 16:29:46;;;;;;;5.07;2.25;;;36.10;41.10;;;;;;5073954;28;20040;-62
2022/08/11 16:32:16;;;;;;;4.10;2.05;;;35.90;41.40;;;;;;5073793;28;20025;-61
2022/08/11 16:40:21;;;;;;;7.03;2.63;;;35.10;42.00;;;;;;5073875;28;20150;-62
2022/08/11 16:48:20;;;;;;;8.27;2.58;;;34.80;42.50;;;;;;5073584;28;20047;-62
2022/08/11 16:50:46;;;;;;;6.60;2.60;;;34.30;43.20;;;;;;5073214;28;20028;-62
2022/08/11 16:53:14;;;;;;;5.10;2.60;;;34.40;43.40;;;;;;5071719;28;20024;-61
2022/08/11 16:55:40;;;;;;;7.22;2.65;;;34.20;44.30;;;;;;5073279;28;20385;-61
2022/08/11 17:00:51;;;;;;;7.07;2.70;;;34.40;43.40;;;;;;5072749;28;20102;-62
2022/08/11 17:14:44;;;;;;;7.13;2.60;;;33.60;44.70;;;;;;5073241;28;20081;-61
2022/08/11 17:17:37;;;;;;;8.73;3.08;;;33.40;44.70;;;;;;5072743;28;20017;-61
2022/08/11 17:20:08;;;;;;;4.70;3.28;;;33.10;45.50;;;;;;5103187;28;20127;-61
2022/08/11 17:25:23;;;;;;;6.05;2.10;;;33.10;45.00;;;;;;5072517;28;20040;-61
2022/08/11 17:27:51;;;;;;;13.73;3.05;;;32.80;45.90;;;;;;5072535;28;20040;-61
2022/08/11 17:30:17;;;;;;;9.18;2.70;;;32.80;44.80;;;;;;5072323;28;20039;-61
2022/08/11 17:35:47;;;;;;;8.85;4.13;;;32.50;45.30;;;;;;5059745;28;20037;-61
2022/08/11 17:38:15;;;;;;;11.95;3.75;;;32.30;45.10;;;;;;5072307;28;20024;-61
2022/08/11 17:48:24;;;;;;;6.43;3.70;;;32.20;45.10;;;;;;5072052;28;20112;-61
2022/08/11 17:49:07;;;;;;;10.52;4.03;;;31.90;45.70;;;;;;5072310;28;20142;-61
2022/08/11 17:59:55;;;;;;;8.27;2.38;;;31.80;45.30;;;;;;5071784;28;20544;-61
2022/08/11 18:05:27;;;;;;;213.15;13.70;;;31.40;45.80;;;;;;5072229;28;20039;-62
